• Join FlightAware (Why Join?)
  • Login
  • US Flag 
02:33AM EDT


 

Airport Tracker/Info


-or-


 

Live Flight TrackerFlight Track Log ✈ SKW6306 ✈ 16-Jun-2013 ✈ KDEN - KCOD

Flight Track Log - Related Links

Times and Time Zones

All times are in EDT time to prevent confusion due to time zone crossing. See the SKW6306 flight status page for this flight to view local times or setup timezone preferences in your user account.

Time Position Orientation Groundspeed Altitude Reporting Facility
EDT Latitude Longitude Course Direction KTS MPH feet Rate Location/Type
10:37PM 39.8667 -104.7833 285° West 209 241 7,900  Level Denver TRACON
10:38PM 39.8833 -104.8667 285° West 230 265 9,800 1,500 Climbing Denver TRACON
10:39PM 39.8986 -104.8789 328° Northwest 232 267 10,200 1,500 Climbing Denver Center
10:40PM 39.9697 -104.9489 323° Northwest 274 315 12,100 1,560 Climbing Denver Center
10:41PM 40.0575 -104.9419 North 311 358 13,500 1,500 Climbing Denver Center
10:42PM 40.1594 -104.9294 North 332 382 15,200 1,800 Climbing Denver Center
10:43PM 40.2553 -104.9175 North 344 396 17,200 1,800 Climbing Denver Center
10:44PM 40.3492 -104.9067 North 336 387 19,000 1,440 Climbing Denver Center
10:45PM 40.4444 -104.8964 North 345 397 20,200 1,020 Climbing Denver Center
10:46PM 40.5539 -104.8831 North 364 419 21,200 840 Climbing Denver Center
10:47PM 40.6614 -104.8714 North 388 447 22,000 720 Climbing Denver Center
10:48PM 40.7719 -104.8519 North 389 448 22,700 720 Climbing Denver Center
10:49PM 40.8775 -104.8914 344° North 396 456 23,500 780 Climbing Denver Center
10:50PM 40.9814 -104.9444 339° North 400 460 24,300 780 Climbing Denver Center
10:51PM 41.0906 -104.9989 339° North 402 463 25,200 840 Climbing Denver Center
10:52PM 41.2050 -105.0692 335° Northwest 409 471 26,100 720 Climbing Denver Center
10:53PM 41.2875 -105.1617 320° Northwest 405 466 26,800 720 Climbing Denver Center
10:54PM 41.3672 -105.2572 318° Northwest 403 464 27,600 780 Climbing Denver Center
10:55PM 41.4622 -105.3667 319° Northwest 404 465 28,500 720 Climbing Denver Center
10:56PM 41.5283 -105.4442 319° Northwest 399 459 29,100 660 Climbing Denver Center
10:57PM 41.6358 -105.5708 319° Northwest 402 463 29,900 660 Climbing Denver Center
10:58PM 41.7161 -105.6647 319° Northwest 400 460 30,500 540 Climbing Denver Center
10:59PM 41.7969 -105.7606 319° Northwest 403 464 31,100 540 Climbing Denver Center
11:00PM 41.8775 -105.8564 318° Northwest 403 464 31,700 420 Climbing Denver Center
11:01PM 41.9703 -105.9667 319° Northwest 400 460 32,000 120 Climbing Denver Center
11:02PM 42.0675 -106.0831 318° Northwest 414 476 32,000  Level Denver Center
11:03PM 42.1492 -106.1828 318° Northwest 414 476 32,000  Level Denver Center
11:05PM 42.2342 -106.2867 318° Northwest 425 489 32,000  Level Denver Center
11:06PM 42.3478 -106.4247 318° Northwest 430 495 32,000  Level Denver Center
11:07PM 42.4333 -106.5294 318° Northwest 431 496 32,000  Level Denver Center
11:08PM 42.5486 -106.6675 319° Northwest 433 498 32,000  Level Denver Center
11:09PM 42.6619 -106.8081 318° Northwest 434 499 32,000  Level Denver Center
11:10PM 42.7525 -106.9089 321° Northwest 438 504 32,000  Level Denver Center
11:11PM 42.8656 -107.0147 326° Northwest 441 507 32,000  Level Denver Center
11:12PM 42.9608 -107.1044 325° Northwest 435 501 32,000  Level Denver Center
11:13PM 43.0728 -107.2164 324° Northwest 435 501 32,000  Level Salt Lake Center
11:14PM 43.1669 -107.3436 315° West 428 493 32,000  Level Salt Lake Center
11:15PM 43.2492 -107.4522 316° Northwest 430 495 32,000 -360 Level Salt Lake Center
11:17PM 43.3314 -107.5619 316° Northwest 431 496 31,300 -1,080 Descending Salt Lake Center
11:18PM 43.4283 -107.6933 315° West 438 504 29,800 -1,500 Descending Salt Lake Center
11:19PM 43.5111 -107.8061 315° West 436 502 28,300 -1,680 Descending Salt Lake Center
11:20PM 43.6056 -107.9344 315° West 428 493 26,400 -1,920 Descending Salt Lake Center
11:21PM 43.6864 -108.0456 315° West 427 491 24,400 -1,980 Descending Salt Lake Center
11:22PM 43.7797 -108.1442 323° Northwest 441 507 22,400 -2,340 Descending Salt Lake Center
11:23PM 43.8764 -108.2717 316° Northwest 430 495 19,700 -2,580 Descending Salt Lake Center
11:24PM 43.9528 -108.3822 314° West 419 482 17,200 -2,160 Descending Salt Lake Center
11:25PM 44.0283 -108.4881 315° West 412 474 15,300 -1,980 Descending Salt Lake Center
11:26PM 44.1117 -108.6100 314° West 400 460 13,200 -1,980 Descending Salt Lake Center
11:27PM 44.1806 -108.7103 314° West 389 448 11,300 -1,620 Descending Salt Lake Center
11:28PM 44.2594 -108.8275 313° West 379 436 10,000 -960 Descending Salt Lake Center
11:29PM 44.3117 -108.9047 313° West 329 379 9,400 -1,080 Descending Salt Lake Center
11:30PM 44.3642 -108.9794 315° West 290 334 7,900 -1,500 Descending Salt Lake Center